CFG560 LFBZ-EDDF
Flight info
| Callsign | CFG560 |
|---|---|
| Flight time | 1h 35m |
| Altitude | 36000 |
| Route | VAVIX DCT EVPOK DCT ENUPA DCT VALEK/N0451F350 DCT RAMOB IMCOM1A |
| Aircraft | A21N/M-SDE2E3FGHIRWXY/LB1 |
Departure
| Time | 2026-04-17 09:13 |
|---|---|
| Airport | Biarritz Pays Basque airport (LFBZ) |
Arrival
| Time | 2026-04-17 10:48 |
|---|---|
| Airport | Frankfurt Main Airport (EDDF) |
| Time | Latitude | Longitude | Altitude | Speed | Heading |
|---|---|---|---|---|---|
| 2026-04-17 08:41 | 43.47124 | -1.53072 | 262 ft | 0 kts | 7° |
| 2026-04-17 09:03 | 43.47116 | -1.53073 | 261 ft | 4 kts | 7° |
| 2026-04-17 09:03 | 43.47089 | -1.53078 | 262 ft | 5 kts | 7° |
| 2026-04-17 09:03 | 43.47067 | -1.53084 | 262 ft | 5 kts | 37° |
| 2026-04-17 09:03 | 43.47054 | -1.53113 | 262 ft | 5 kts | 82° |
| 2026-04-17 09:04 | 43.47053 | -1.53127 | 262 ft | 3 kts | 89° |
| 2026-04-17 09:08 | 43.47053 | -1.53126 | 235 ft | 1 kts | 89° |
| 2026-04-17 09:08 | 43.47054 | -1.53091 | 262 ft | 6 kts | 89° |
| 2026-04-17 09:08 | 43.47055 | -1.53016 | 261 ft | 9 kts | 89° |
| 2026-04-17 09:08 | 43.47053 | -1.52916 | 260 ft | 11 kts | 115° |
| 2026-04-17 09:09 | 43.46994 | -1.52839 | 260 ft | 13 kts | 107° |
| 2026-04-17 09:09 | 43.46995 | -1.52714 | 259 ft | 14 kts | 90° |
| 2026-04-17 09:09 | 43.46996 | -1.52577 | 258 ft | 15 kts | 90° |
| 2026-04-17 09:09 | 43.46997 | -1.52431 | 257 ft | 16 kts | 88° |
| 2026-04-17 09:10 | 43.46930 | -1.52174 | 255 ft | 18 kts | 181° |
| 2026-04-17 09:10 | 43.46841 | -1.52091 | 254 ft | 19 kts | 86° |
| 2026-04-17 09:10 | 43.46845 | -1.51908 | 253 ft | 20 kts | 89° |
| 2026-04-17 09:11 | 43.46847 | -1.51717 | 251 ft | 20 kts | 89° |
| 2026-04-17 09:11 | 43.46849 | -1.51519 | 250 ft | 21 kts | 89° |
| 2026-04-17 09:11 | 43.46851 | -1.51314 | 248 ft | 22 kts | 89° |
| 2026-04-17 09:11 | 43.46853 | -1.51109 | 247 ft | 7 kts | 88° |
| 2026-04-17 09:12 | 43.46859 | -1.51055 | 247 ft | 7 kts | 69° |
| 2026-04-17 09:12 | 43.46884 | -1.50994 | 247 ft | 8 kts | 83° |
| 2026-04-17 09:12 | 43.46851 | -1.51012 | 247 ft | 9 kts | 266° |
| 2026-04-17 09:12 | 43.46850 | -1.51042 | 247 ft | 19 kts | 268° |
| 2026-04-17 09:13 | 43.46846 | -1.51676 | 251 ft | 111 kts | 270° |
| 2026-04-17 09:13 | 43.46833 | -1.53086 | 553 ft | 164 kts | 271° |
| 2026-04-17 09:13 | 43.46807 | -1.54687 | 1672 ft | 175 kts | 268° |
| 2026-04-17 09:13 | 43.46771 | -1.56473 | 2735 ft | 198 kts | 268° |
| 2026-04-17 09:14 | 43.46742 | -1.58471 | 3747 ft | 222 kts | 268° |
| 2026-04-17 09:14 | 43.46744 | -1.60596 | 4434 ft | 225 kts | 274° |
| 2026-04-17 09:14 | 43.47374 | -1.62605 | 4954 ft | 239 kts | 308° |
| 2026-04-17 09:14 | 43.48782 | -1.63963 | 5374 ft | 262 kts | 342° |
| 2026-04-17 09:15 | 43.50627 | -1.64050 | 5950 ft | 274 kts | 14° |
| 2026-04-17 09:15 | 43.52290 | -1.62757 | 6722 ft | 279 kts | 41° |
| 2026-04-17 09:15 | 43.53752 | -1.60978 | 7537 ft | 281 kts | 40° |
| 2026-04-17 09:15 | 43.55235 | -1.59195 | 8354 ft | 283 kts | 40° |
| 2026-04-17 09:16 | 43.56721 | -1.57398 | 9171 ft | 285 kts | 40° |
| 2026-04-17 09:16 | 43.58218 | -1.55583 | 9988 ft | 288 kts | 40° |
| 2026-04-17 09:16 | 43.59739 | -1.53737 | 10545 ft | 298 kts | 40° |
| 2026-04-17 09:16 | 43.61347 | -1.51789 | 10843 ft | 317 kts | 39° |
| 2026-04-17 09:17 | 43.62467 | -1.50429 | 11033 ft | 330 kts | 39° |
| 2026-04-17 09:17 | 43.64239 | -1.48269 | 11288 ft | 349 kts | 39° |
| 2026-04-17 09:17 | 43.66111 | -1.45983 | 11538 ft | 368 kts | 39° |
| 2026-04-17 09:17 | 43.68732 | -1.42780 | 11860 ft | 391 kts | 39° |
| 2026-04-17 09:18 | 43.70790 | -1.40258 | 12266 ft | 399 kts | 40° |
| 2026-04-17 09:18 | 43.72880 | -1.37690 | 12826 ft | 403 kts | 39° |
| 2026-04-17 09:18 | 43.74988 | -1.35102 | 13393 ft | 407 kts | 39° |
| 2026-04-17 09:18 | 43.77114 | -1.32493 | 13959 ft | 411 kts | 39° |
| 2026-04-17 09:19 | 43.78536 | -1.30744 | 14280 ft | 414 kts | 39° |
| 2026-04-17 09:19 | 43.80696 | -1.28087 | 14768 ft | 417 kts | 39° |
| 2026-04-17 09:19 | 43.82873 | -1.25400 | 15274 ft | 421 kts | 39° |
| 2026-04-17 09:19 | 43.85065 | -1.22686 | 15776 ft | 425 kts | 39° |
| 2026-04-17 09:20 | 43.87281 | -1.19942 | 16316 ft | 429 kts | 39° |
| 2026-04-17 09:20 | 43.89517 | -1.17173 | 16850 ft | 433 kts | 39° |
| 2026-04-17 09:20 | 43.91774 | -1.14370 | 17382 ft | 437 kts | 39° |
| 2026-04-17 09:20 | 43.94052 | -1.11544 | 17902 ft | 441 kts | 39° |
| 2026-04-17 09:21 | 43.96355 | -1.08697 | 18412 ft | 445 kts | 39° |
| 2026-04-17 09:21 | 43.98677 | -1.05824 | 18857 ft | 449 kts | 39° |
| 2026-04-17 09:21 | 44.01016 | -1.02922 | 19297 ft | 452 kts | 39° |
| 2026-04-17 09:21 | 44.03372 | -0.99992 | 19742 ft | 456 kts | 39° |
| 2026-04-17 09:22 | 44.05741 | -0.97040 | 20172 ft | 459 kts | 39° |
| 2026-04-17 09:22 | 44.08125 | -0.94068 | 20594 ft | 462 kts | 39° |
| 2026-04-17 09:22 | 44.10528 | -0.91068 | 21013 ft | 465 kts | 39° |
| 2026-04-17 09:22 | 44.12941 | -0.88050 | 21430 ft | 468 kts | 39° |
| 2026-04-17 09:23 | 44.15379 | -0.84999 | 21849 ft | 472 kts | 39° |
| 2026-04-17 09:23 | 44.17826 | -0.81936 | 22274 ft | 475 kts | 39° |
| 2026-04-17 09:23 | 44.20290 | -0.78846 | 22699 ft | 478 kts | 39° |
| 2026-04-17 09:23 | 44.22768 | -0.75734 | 23132 ft | 481 kts | 39° |
| 2026-04-17 09:24 | 44.25263 | -0.72597 | 23552 ft | 484 kts | 39° |
| 2026-04-17 09:24 | 44.27734 | -0.69384 | 23925 ft | 488 kts | 44° |
| 2026-04-17 09:24 | 44.29945 | -0.65832 | 24268 ft | 492 kts | 48° |
| 2026-04-17 09:24 | 44.32144 | -0.62147 | 24630 ft | 494 kts | 48° |
| 2026-04-17 09:25 | 44.34339 | -0.58458 | 25072 ft | 493 kts | 48° |
| 2026-04-17 09:25 | 44.36529 | -0.54780 | 25518 ft | 492 kts | 48° |
| 2026-04-17 09:25 | 44.38718 | -0.51108 | 25963 ft | 491 kts | 48° |
| 2026-04-17 09:25 | 44.40902 | -0.47440 | 26412 ft | 491 kts | 48° |
| 2026-04-17 09:26 | 44.43081 | -0.43774 | 26867 ft | 490 kts | 48° |
| 2026-04-17 09:26 | 44.45256 | -0.40106 | 27303 ft | 489 kts | 48° |
| 2026-04-17 09:26 | 44.47429 | -0.36441 | 27735 ft | 489 kts | 48° |
| 2026-04-17 09:26 | 44.49595 | -0.32780 | 28168 ft | 488 kts | 48° |
| 2026-04-17 09:27 | 44.51757 | -0.29124 | 28595 ft | 487 kts | 48° |
| 2026-04-17 09:27 | 44.53917 | -0.25466 | 29020 ft | 487 kts | 48° |
| 2026-04-17 09:27 | 44.56073 | -0.21811 | 29441 ft | 486 kts | 48° |
| 2026-04-17 09:27 | 44.58224 | -0.18158 | 29845 ft | 485 kts | 48° |
| 2026-04-17 09:28 | 44.60371 | -0.14506 | 30236 ft | 485 kts | 48° |
| 2026-04-17 09:28 | 44.62519 | -0.10848 | 30570 ft | 485 kts | 48° |
| 2026-04-17 09:28 | 44.64662 | -0.07193 | 30873 ft | 485 kts | 48° |
| 2026-04-17 09:28 | 44.66806 | -0.03534 | 31187 ft | 484 kts | 48° |
| 2026-04-17 09:29 | 44.68940 | 0.00118 | 31487 ft | 483 kts | 48° |
| 2026-04-17 09:29 | 44.71073 | 0.03772 | 31817 ft | 482 kts | 48° |
| 2026-04-17 09:29 | 44.73197 | 0.07416 | 32115 ft | 482 kts | 48° |
| 2026-04-17 09:29 | 44.75317 | 0.11058 | 32394 ft | 481 kts | 48° |
| 2026-04-17 09:30 | 44.77409 | 0.14653 | 32664 ft | 481 kts | 47° |
| 2026-04-17 09:30 | 44.79526 | 0.18294 | 32933 ft | 481 kts | 47° |
| 2026-04-17 09:30 | 44.81642 | 0.21937 | 33207 ft | 480 kts | 47° |
| 2026-04-17 09:30 | 44.83754 | 0.25581 | 33459 ft | 480 kts | 47° |
| 2026-04-17 09:31 | 44.85894 | 0.29278 | 33715 ft | 479 kts | 47° |
| 2026-04-17 09:31 | 44.87971 | 0.32871 | 33942 ft | 479 kts | 47° |
| 2026-04-17 09:31 | 44.90076 | 0.36517 | 34178 ft | 479 kts | 47° |
| 2026-04-17 09:31 | 44.92177 | 0.40158 | 34374 ft | 478 kts | 47° |
| 2026-04-17 09:32 | 44.94275 | 0.43799 | 34592 ft | 477 kts | 47° |
| 2026-04-17 09:32 | 44.96365 | 0.47432 | 34797 ft | 477 kts | 47° |
| 2026-04-17 09:32 | 44.98455 | 0.51067 | 34979 ft | 476 kts | 47° |
| 2026-04-17 09:32 | 45.00541 | 0.54703 | 35160 ft | 476 kts | 47° |
| 2026-04-17 09:33 | 45.02623 | 0.58335 | 35330 ft | 476 kts | 47° |
| 2026-04-17 09:33 | 45.04704 | 0.61970 | 35504 ft | 475 kts | 47° |
| 2026-04-17 09:33 | 45.06780 | 0.65601 | 35675 ft | 475 kts | 47° |
| 2026-04-17 09:33 | 45.08856 | 0.69235 | 35843 ft | 474 kts | 47° |
| 2026-04-17 09:34 | 45.10927 | 0.72866 | 36000 ft | 474 kts | 47° |
| 2026-04-17 09:34 | 45.12995 | 0.76500 | 36159 ft | 474 kts | 47° |
| 2026-04-17 09:34 | 45.17117 | 0.83749 | 36265 ft | 471 kts | 47° |
| 2026-04-17 09:35 | 45.21224 | 0.90992 | 36247 ft | 470 kts | 48° |
| 2026-04-17 09:35 | 45.25316 | 0.98225 | 36218 ft | 470 kts | 48° |
| 2026-04-17 09:36 | 45.29403 | 1.05471 | 36214 ft | 470 kts | 48° |
| 2026-04-17 09:36 | 45.33481 | 1.12721 | 36214 ft | 470 kts | 48° |
| 2026-04-17 09:37 | 45.37556 | 1.19979 | 36217 ft | 469 kts | 48° |
| 2026-04-17 09:37 | 45.41590 | 1.27184 | 36221 ft | 468 kts | 49° |
| 2026-04-17 09:38 | 45.45644 | 1.34454 | 36213 ft | 468 kts | 49° |
| 2026-04-17 09:38 | 45.49764 | 1.41631 | 36214 ft | 468 kts | 47° |
| 2026-04-17 09:39 | 45.53930 | 1.48751 | 36219 ft | 468 kts | 47° |
| 2026-04-17 09:39 | 45.58096 | 1.55885 | 36223 ft | 468 kts | 47° |
| 2026-04-17 09:40 | 45.62249 | 1.63020 | 36216 ft | 466 kts | 47° |
| 2026-04-17 09:40 | 45.66391 | 1.70155 | 36215 ft | 466 kts | 47° |
| 2026-04-17 09:41 | 45.70529 | 1.77296 | 36214 ft | 466 kts | 47° |
| 2026-04-17 09:41 | 45.74634 | 1.84398 | 36218 ft | 466 kts | 47° |
| 2026-04-17 09:42 | 45.78758 | 1.91564 | 36220 ft | 466 kts | 48° |
| 2026-04-17 09:42 | 45.82879 | 1.98729 | 36218 ft | 465 kts | 48° |
| 2026-04-17 09:43 | 45.86980 | 2.05880 | 36224 ft | 464 kts | 48° |
| 2026-04-17 09:43 | 45.91079 | 2.13050 | 36226 ft | 464 kts | 48° |
| 2026-04-17 09:44 | 45.95170 | 2.20224 | 36235 ft | 464 kts | 48° |
| 2026-04-17 09:44 | 45.99252 | 2.27398 | 36230 ft | 464 kts | 48° |
| 2026-04-17 09:45 | 46.03331 | 2.34587 | 36232 ft | 464 kts | 48° |
| 2026-04-17 09:45 | 46.07402 | 2.41781 | 36234 ft | 462 kts | 49° |
| 2026-04-17 09:46 | 46.11458 | 2.48965 | 36234 ft | 462 kts | 49° |
| 2026-04-17 09:46 | 46.15514 | 2.56164 | 36244 ft | 462 kts | 49° |
| 2026-04-17 09:47 | 46.19566 | 2.63379 | 36237 ft | 463 kts | 49° |
| 2026-04-17 09:47 | 46.23614 | 2.70603 | 36239 ft | 462 kts | 49° |
| 2026-04-17 09:48 | 46.27626 | 2.77787 | 36241 ft | 463 kts | 49° |
| 2026-04-17 09:48 | 46.31663 | 2.85030 | 36239 ft | 462 kts | 49° |
| 2026-04-17 09:49 | 46.35694 | 2.92283 | 36245 ft | 463 kts | 49° |
| 2026-04-17 09:49 | 46.39726 | 2.99559 | 36242 ft | 463 kts | 49° |
| 2026-04-17 09:50 | 46.43753 | 3.06842 | 36243 ft | 463 kts | 49° |
| 2026-04-17 09:50 | 46.47782 | 3.14143 | 36243 ft | 463 kts | 49° |
| 2026-04-17 09:51 | 46.51801 | 3.21449 | 36239 ft | 463 kts | 49° |
| 2026-04-17 09:51 | 46.55812 | 3.28761 | 36241 ft | 463 kts | 49° |
| 2026-04-17 09:52 | 46.59817 | 3.36081 | 36243 ft | 463 kts | 49° |
| 2026-04-17 09:52 | 46.63853 | 3.43283 | 36241 ft | 461 kts | 43° |
| 2026-04-17 09:53 | 46.66274 | 3.46294 | 36241 ft | 456 kts | 31° |
| 2026-04-17 09:53 | 46.69009 | 3.48594 | 36245 ft | 453 kts | 25° |
| 2026-04-17 09:53 | 46.74617 | 3.52796 | 36242 ft | 453 kts | 24° |
| 2026-04-17 09:54 | 46.80212 | 3.57046 | 36240 ft | 453 kts | 24° |
| 2026-04-17 09:54 | 46.85797 | 3.61338 | 36240 ft | 454 kts | 25° |
| 2026-04-17 09:55 | 46.91382 | 3.65642 | 36252 ft | 454 kts | 25° |
| 2026-04-17 09:55 | 46.96975 | 3.69956 | 36239 ft | 455 kts | 24° |
| 2026-04-17 09:56 | 47.02573 | 3.74286 | 36237 ft | 455 kts | 25° |
| 2026-04-17 09:56 | 47.08168 | 3.78626 | 36234 ft | 455 kts | 25° |
| 2026-04-17 09:57 | 47.13762 | 3.82976 | 36235 ft | 455 kts | 25° |
| 2026-04-17 09:57 | 47.19355 | 3.87336 | 36233 ft | 455 kts | 25° |
| 2026-04-17 09:58 | 47.24911 | 3.91677 | 36230 ft | 455 kts | 25° |
| 2026-04-17 09:58 | 47.30501 | 3.96054 | 36231 ft | 455 kts | 25° |
| 2026-04-17 09:59 | 47.36089 | 4.00442 | 36233 ft | 454 kts | 25° |
| 2026-04-17 09:59 | 47.41661 | 4.04827 | 36230 ft | 454 kts | 25° |
| 2026-04-17 10:00 | 47.47232 | 4.09220 | 36232 ft | 454 kts | 25° |
| 2026-04-17 10:00 | 47.52799 | 4.13621 | 36249 ft | 453 kts | 25° |
| 2026-04-17 10:01 | 47.58357 | 4.18030 | 36236 ft | 453 kts | 25° |
| 2026-04-17 10:01 | 47.63918 | 4.22450 | 36231 ft | 454 kts | 25° |
| 2026-04-17 10:02 | 47.69494 | 4.26897 | 36229 ft | 455 kts | 25° |
| 2026-04-17 10:02 | 47.75068 | 4.31353 | 36236 ft | 454 kts | 25° |
| 2026-04-17 10:03 | 47.80627 | 4.35803 | 36233 ft | 454 kts | 25° |
| 2026-04-17 10:03 | 47.86146 | 4.40237 | 36227 ft | 454 kts | 25° |
| 2026-04-17 10:04 | 47.91699 | 4.44706 | 36226 ft | 453 kts | 25° |
| 2026-04-17 10:04 | 47.97237 | 4.49172 | 36225 ft | 451 kts | 25° |
| 2026-04-17 10:05 | 48.02757 | 4.53637 | 36232 ft | 451 kts | 25° |
| 2026-04-17 10:05 | 48.08274 | 4.58109 | 36232 ft | 451 kts | 25° |
| 2026-04-17 10:06 | 48.13790 | 4.62592 | 36246 ft | 451 kts | 25° |
| 2026-04-17 10:06 | 48.19282 | 4.67057 | 36234 ft | 449 kts | 25° |
| 2026-04-17 10:07 | 48.24762 | 4.71529 | 36239 ft | 449 kts | 25° |
| 2026-04-17 10:07 | 48.30261 | 4.76025 | 36232 ft | 450 kts | 25° |
| 2026-04-17 10:08 | 48.35765 | 4.80541 | 36238 ft | 450 kts | 25° |
| 2026-04-17 10:08 | 48.41254 | 4.85054 | 36240 ft | 449 kts | 25° |
| 2026-04-17 10:09 | 48.46705 | 4.89547 | 36238 ft | 449 kts | 25° |
| 2026-04-17 10:09 | 48.52185 | 4.94078 | 36255 ft | 449 kts | 25° |
| 2026-04-17 10:10 | 48.57659 | 4.98618 | 36268 ft | 447 kts | 25° |
| 2026-04-17 10:11 | 48.64958 | 5.04670 | 36259 ft | 447 kts | 25° |
| 2026-04-17 10:11 | 48.70377 | 5.09184 | 36256 ft | 448 kts | 25° |
| 2026-04-17 10:12 | 48.75870 | 5.13775 | 36253 ft | 448 kts | 25° |
| 2026-04-17 10:12 | 48.81293 | 5.18314 | 36247 ft | 448 kts | 25° |
| 2026-04-17 10:13 | 48.86751 | 5.22895 | 36242 ft | 448 kts | 25° |
| 2026-04-17 10:13 | 48.92207 | 5.27488 | 36236 ft | 449 kts | 25° |
| 2026-04-17 10:14 | 48.97672 | 5.32101 | 36244 ft | 449 kts | 25° |
| 2026-04-17 10:14 | 49.03131 | 5.36726 | 36235 ft | 449 kts | 25° |
| 2026-04-17 10:15 | 49.08584 | 5.41347 | 36238 ft | 448 kts | 25° |
| 2026-04-17 10:15 | 49.14036 | 5.45980 | 36239 ft | 448 kts | 25° |
| 2026-04-17 10:16 | 49.19483 | 5.50629 | 36247 ft | 448 kts | 25° |
| 2026-04-17 10:16 | 49.24919 | 5.55271 | 36241 ft | 448 kts | 25° |
| 2026-04-17 10:17 | 49.30353 | 5.59934 | 36241 ft | 448 kts | 25° |
| 2026-04-17 10:17 | 49.35788 | 5.64610 | 36239 ft | 448 kts | 25° |
| 2026-04-17 10:18 | 49.41193 | 5.69255 | 36245 ft | 448 kts | 25° |
| 2026-04-17 10:18 | 49.46657 | 5.73995 | 36243 ft | 448 kts | 26° |
| 2026-04-17 10:19 | 49.51597 | 5.79893 | 36240 ft | 458 kts | 46° |
| 2026-04-17 10:19 | 49.53377 | 5.83905 | 36251 ft | 463 kts | 58° |
| 2026-04-17 10:19 | 49.54838 | 5.88335 | 36255 ft | 464 kts | 61° |
| 2026-04-17 10:20 | 49.57666 | 5.97273 | 36257 ft | 464 kts | 60° |
| 2026-04-17 10:20 | 49.60512 | 6.06146 | 36260 ft | 458 kts | 60° |
| 2026-04-17 10:21 | 49.63325 | 6.14932 | 36264 ft | 459 kts | 60° |
| 2026-04-17 10:21 | 49.66181 | 6.23836 | 36266 ft | 465 kts | 60° |
| 2026-04-17 10:22 | 49.69045 | 6.32788 | 36261 ft | 465 kts | 60° |
| 2026-04-17 10:22 | 49.71897 | 6.41758 | 36257 ft | 464 kts | 60° |
| 2026-04-17 10:23 | 49.74729 | 6.50711 | 36240 ft | 462 kts | 60° |
| 2026-04-17 10:23 | 49.77533 | 6.59600 | 36233 ft | 457 kts | 60° |
| 2026-04-17 10:24 | 49.80323 | 6.68469 | 35804 ft | 461 kts | 61° |
| 2026-04-17 10:24 | 49.81719 | 6.72925 | 35073 ft | 460 kts | 61° |
| 2026-04-17 10:24 | 49.83097 | 6.77329 | 34284 ft | 461 kts | 61° |
| 2026-04-17 10:24 | 49.84502 | 6.81816 | 33362 ft | 462 kts | 61° |
| 2026-04-17 10:25 | 49.85904 | 6.86301 | 32444 ft | 463 kts | 61° |
| 2026-04-17 10:25 | 49.87305 | 6.90798 | 31564 ft | 464 kts | 62° |
| 2026-04-17 10:25 | 49.88710 | 6.95302 | 30700 ft | 464 kts | 62° |
| 2026-04-17 10:25 | 49.90113 | 6.99805 | 29786 ft | 465 kts | 62° |
| 2026-04-17 10:26 | 49.91510 | 7.04341 | 28816 ft | 467 kts | 62° |
| 2026-04-17 10:26 | 49.92916 | 7.08907 | 27895 ft | 470 kts | 62° |
| 2026-04-17 10:26 | 49.94334 | 7.13494 | 27012 ft | 473 kts | 62° |
| 2026-04-17 10:26 | 49.95761 | 7.18118 | 26218 ft | 476 kts | 63° |
| 2026-04-17 10:27 | 49.97189 | 7.22775 | 25475 ft | 479 kts | 63° |
| 2026-04-17 10:27 | 49.98628 | 7.27465 | 24751 ft | 482 kts | 63° |
| 2026-04-17 10:27 | 50.00077 | 7.32175 | 24061 ft | 483 kts | 63° |
| 2026-04-17 10:27 | 50.01504 | 7.36868 | 23284 ft | 478 kts | 63° |
| 2026-04-17 10:28 | 50.02917 | 7.41521 | 22473 ft | 473 kts | 63° |
| 2026-04-17 10:28 | 50.04310 | 7.46120 | 21685 ft | 468 kts | 63° |
| 2026-04-17 10:28 | 50.05691 | 7.50670 | 20905 ft | 462 kts | 63° |
| 2026-04-17 10:28 | 50.07065 | 7.55167 | 20162 ft | 458 kts | 63° |
| 2026-04-17 10:29 | 50.08419 | 7.59624 | 19444 ft | 453 kts | 64° |
| 2026-04-17 10:29 | 50.09432 | 7.64241 | 18730 ft | 450 kts | 78° |
| 2026-04-17 10:29 | 50.09619 | 7.69077 | 17956 ft | 446 kts | 94° |
| 2026-04-17 10:29 | 50.08951 | 7.73747 | 17174 ft | 441 kts | 111° |
| 2026-04-17 10:30 | 50.07501 | 7.77884 | 16410 ft | 434 kts | 127° |
| 2026-04-17 10:30 | 50.05650 | 7.81485 | 15704 ft | 427 kts | 129° |
| 2026-04-17 10:30 | 50.03829 | 7.85087 | 15128 ft | 418 kts | 127° |
| 2026-04-17 10:30 | 50.02136 | 7.88685 | 14617 ft | 408 kts | 124° |
| 2026-04-17 10:31 | 50.00861 | 7.92554 | 14128 ft | 398 kts | 108° |
| 2026-04-17 10:31 | 50.00382 | 7.96721 | 13589 ft | 388 kts | 91° |
| 2026-04-17 10:31 | 50.00693 | 8.00829 | 13075 ft | 379 kts | 73° |
| 2026-04-17 10:31 | 50.01563 | 8.04645 | 12578 ft | 371 kts | 68° |
| 2026-04-17 10:32 | 50.02503 | 8.08350 | 12070 ft | 366 kts | 68° |
| 2026-04-17 10:32 | 50.03417 | 8.12009 | 11582 ft | 361 kts | 68° |
| 2026-04-17 10:32 | 50.04308 | 8.15631 | 11097 ft | 356 kts | 68° |
| 2026-04-17 10:32 | 50.05188 | 8.19220 | 10616 ft | 354 kts | 69° |
| 2026-04-17 10:33 | 50.06055 | 8.22789 | 10139 ft | 351 kts | 69° |
| 2026-04-17 10:33 | 50.06910 | 8.26327 | 9610 ft | 347 kts | 69° |
| 2026-04-17 10:33 | 50.07757 | 8.29822 | 9086 ft | 342 kts | 69° |
| 2026-04-17 10:33 | 50.08592 | 8.33259 | 8570 ft | 337 kts | 69° |
| 2026-04-17 10:34 | 50.09415 | 8.36642 | 8069 ft | 332 kts | 69° |
| 2026-04-17 10:34 | 50.10219 | 8.39967 | 7541 ft | 324 kts | 70° |
| 2026-04-17 10:34 | 50.11003 | 8.43197 | 7111 ft | 312 kts | 70° |
| 2026-04-17 10:34 | 50.11756 | 8.46303 | 6766 ft | 299 kts | 70° |
| 2026-04-17 10:35 | 50.12478 | 8.49285 | 6394 ft | 289 kts | 70° |
| 2026-04-17 10:35 | 50.13167 | 8.52146 | 6000 ft | 282 kts | 70° |
| 2026-04-17 10:35 | 50.13844 | 8.54964 | 5603 ft | 275 kts | 70° |
| 2026-04-17 10:35 | 50.14509 | 8.57752 | 5222 ft | 273 kts | 70° |
| 2026-04-17 10:36 | 50.15169 | 8.60518 | 5001 ft | 272 kts | 70° |
| 2026-04-17 10:36 | 50.15832 | 8.63293 | 4972 ft | 273 kts | 70° |
| 2026-04-17 10:36 | 50.16469 | 8.65974 | 4974 ft | 254 kts | 70° |
| 2026-04-17 10:36 | 50.17063 | 8.68474 | 4967 ft | 241 kts | 70° |
| 2026-04-17 10:37 | 50.17643 | 8.70921 | 4972 ft | 240 kts | 70° |
| 2026-04-17 10:37 | 50.18224 | 8.73368 | 4981 ft | 241 kts | 70° |
| 2026-04-17 10:37 | 50.18805 | 8.75814 | 4984 ft | 241 kts | 70° |
| 2026-04-17 10:37 | 50.19385 | 8.78265 | 4993 ft | 241 kts | 70° |
| 2026-04-17 10:38 | 50.19963 | 8.80719 | 4989 ft | 241 kts | 71° |
| 2026-04-17 10:38 | 50.20537 | 8.83171 | 4991 ft | 240 kts | 71° |
| 2026-04-17 10:38 | 50.21104 | 8.85593 | 4984 ft | 240 kts | 71° |
| 2026-04-17 10:38 | 50.21686 | 8.88073 | 4988 ft | 240 kts | 71° |
| 2026-04-17 10:39 | 50.22258 | 8.90526 | 4991 ft | 240 kts | 70° |
| 2026-04-17 10:39 | 50.22823 | 8.92942 | 4989 ft | 241 kts | 70° |
| 2026-04-17 10:39 | 50.23404 | 8.95435 | 4987 ft | 241 kts | 71° |
| 2026-04-17 10:39 | 50.23699 | 8.97937 | 4976 ft | 239 kts | 92° |
| 2026-04-17 10:40 | 50.23426 | 9.00483 | 4981 ft | 237 kts | 108° |
| 2026-04-17 10:40 | 50.23012 | 9.02976 | 4976 ft | 237 kts | 116° |
| 2026-04-17 10:40 | 50.21974 | 9.04892 | 4975 ft | 233 kts | 152° |
| 2026-04-17 10:40 | 50.20448 | 9.05638 | 4986 ft | 231 kts | 177° |
| 2026-04-17 10:41 | 50.18870 | 9.05322 | 4984 ft | 230 kts | 200° |
| 2026-04-17 10:41 | 50.17513 | 9.04036 | 4982 ft | 230 kts | 224° |
| 2026-04-17 10:41 | 50.16587 | 9.02013 | 4992 ft | 230 kts | 241° |
| 2026-04-17 10:41 | 50.15865 | 8.99784 | 4989 ft | 231 kts | 244° |
| 2026-04-17 10:42 | 50.15201 | 8.97506 | 4988 ft | 231 kts | 246° |
| 2026-04-17 10:42 | 50.14577 | 8.95203 | 4984 ft | 231 kts | 247° |
| 2026-04-17 10:42 | 50.14001 | 8.92865 | 4986 ft | 231 kts | 248° |
| 2026-04-17 10:42 | 50.13438 | 8.90517 | 4988 ft | 231 kts | 248° |
| 2026-04-17 10:43 | 50.12879 | 8.88171 | 4995 ft | 231 kts | 249° |
| 2026-04-17 10:43 | 50.12321 | 8.85824 | 4893 ft | 231 kts | 249° |
| 2026-04-17 10:43 | 50.11765 | 8.83491 | 4636 ft | 230 kts | 249° |
| 2026-04-17 10:43 | 50.11211 | 8.81161 | 4329 ft | 229 kts | 249° |
| 2026-04-17 10:44 | 50.10659 | 8.78847 | 4011 ft | 228 kts | 248° |
| 2026-04-17 10:44 | 50.10110 | 8.76542 | 3697 ft | 227 kts | 248° |
| 2026-04-17 10:44 | 50.09561 | 8.74239 | 3386 ft | 226 kts | 248° |
| 2026-04-17 10:44 | 50.09016 | 8.71950 | 3048 ft | 222 kts | 248° |
| 2026-04-17 10:45 | 50.08501 | 8.69790 | 2781 ft | 203 kts | 248° |
| 2026-04-17 10:45 | 50.08024 | 8.67790 | 2504 ft | 191 kts | 249° |
| 2026-04-17 10:45 | 50.07580 | 8.65929 | 2232 ft | 178 kts | 249° |
| 2026-04-17 10:45 | 50.07164 | 8.64184 | 1975 ft | 163 kts | 249° |
| 2026-04-17 10:46 | 50.06792 | 8.62626 | 1717 ft | 142 kts | 249° |
| 2026-04-17 10:46 | 50.06455 | 8.61213 | 1510 ft | 139 kts | 249° |
| 2026-04-17 10:46 | 50.06119 | 8.59807 | 1318 ft | 138 kts | 249° |
| 2026-04-17 10:46 | 50.05783 | 8.58409 | 1128 ft | 138 kts | 249° |
| 2026-04-17 10:47 | 50.05450 | 8.57013 | 925 ft | 137 kts | 249° |
| 2026-04-17 10:47 | 50.05119 | 8.55620 | 732 ft | 137 kts | 248° |
| 2026-04-17 10:47 | 50.04789 | 8.54236 | 530 ft | 136 kts | 248° |
| 2026-04-17 10:47 | 50.04459 | 8.52863 | 368 ft | 132 kts | 248° |
| 2026-04-17 10:48 | 50.04175 | 8.51677 | 339 ft | 95 kts | 249° |
| 2026-04-17 10:48 | 50.04003 | 8.50956 | 331 ft | 55 kts | 249° |
| 2026-04-17 10:48 | 50.03928 | 8.50645 | 328 ft | 24 kts | 250° |
| 2026-04-17 10:48 | 50.03851 | 8.50411 | 326 ft | 25 kts | 232° |
| 2026-04-17 10:49 | 50.03721 | 8.50224 | 324 ft | 26 kts | 219° |
| 2026-04-17 10:49 | 50.03625 | 8.50289 | 327 ft | 25 kts | 64° |
| 2026-04-17 10:49 | 50.03690 | 8.50545 | 333 ft | 26 kts | 71° |
| 2026-04-17 10:49 | 50.03757 | 8.50821 | 338 ft | 28 kts | 69° |
| 2026-04-17 10:50 | 50.03827 | 8.51111 | 338 ft | 29 kts | 69° |
| 2026-04-17 10:50 | 50.03899 | 8.51417 | 338 ft | 31 kts | 70° |
| 2026-04-17 10:50 | 50.03974 | 8.51736 | 346 ft | 32 kts | 70° |
| 2026-04-17 10:50 | 50.04046 | 8.52032 | 349 ft | 26 kts | 70° |
| 2026-04-17 10:51 | 50.04110 | 8.52298 | 351 ft | 27 kts | 69° |
| 2026-04-17 10:51 | 50.04178 | 8.52583 | 358 ft | 28 kts | 69° |
| 2026-04-17 10:51 | 50.04219 | 8.52755 | 362 ft | 17 kts | 70° |
| 2026-04-17 10:51 | 50.04263 | 8.52941 | 360 ft | 19 kts | 69° |
| 2026-04-17 10:52 | 50.04313 | 8.53145 | 366 ft | 22 kts | 70° |
| 2026-04-17 10:52 | 50.04370 | 8.53385 | 375 ft | 25 kts | 69° |
| 2026-04-17 10:52 | 50.04405 | 8.53661 | 381 ft | 27 kts | 84° |
| 2026-04-17 10:52 | 50.04425 | 8.53957 | 381 ft | 28 kts | 84° |
| 2026-04-17 10:53 | 50.04445 | 8.54266 | 380 ft | 29 kts | 84° |
| 2026-04-17 10:53 | 50.04449 | 8.54521 | 373 ft | 22 kts | 105° |
| 2026-04-17 10:53 | 50.04365 | 8.54719 | 366 ft | 23 kts | 143° |
| 2026-04-17 10:53 | 50.04222 | 8.54823 | 361 ft | 23 kts | 161° |
| 2026-04-17 10:54 | 50.04066 | 8.54912 | 363 ft | 25 kts | 159° |
| 2026-04-17 10:54 | 50.03904 | 8.55008 | 358 ft | 15 kts | 159° |
| 2026-04-17 10:54 | 50.03846 | 8.55099 | 354 ft | 14 kts | 84° |
| 2026-04-17 10:54 | 50.03881 | 8.55251 | 360 ft | 16 kts | 69° |
| 2026-04-17 10:55 | 50.03922 | 8.55419 | 355 ft | 18 kts | 69° |
| 2026-04-17 10:55 | 50.03966 | 8.55605 | 356 ft | 19 kts | 69° |
| 2026-04-17 10:55 | 50.04015 | 8.55805 | 359 ft | 21 kts | 69° |
| 2026-04-17 10:55 | 50.04066 | 8.56022 | 357 ft | 22 kts | 69° |
| 2026-04-17 10:56 | 50.04122 | 8.56256 | 360 ft | 24 kts | 68° |
| 2026-04-17 10:56 | 50.04181 | 8.56505 | 364 ft | 25 kts | 67° |
| 2026-04-17 10:56 | 50.04235 | 8.56731 | 373 ft | 16 kts | 71° |
| 2026-04-17 10:56 | 50.04327 | 8.56820 | 365 ft | 18 kts | 12° |
| 2026-04-17 10:57 | 50.04441 | 8.56852 | 371 ft | 4 kts | 9° |
| 2026-04-17 10:57 | 50.04473 | 8.56861 | 365 ft | 6 kts | 14° |
| 2026-04-17 10:57 | 50.04516 | 8.56877 | 364 ft | 7 kts | 15° |
| 2026-04-17 10:57 | 50.04554 | 8.56943 | 368 ft | 9 kts | 60° |
| 2026-04-17 10:58 | 50.04581 | 8.57017 | 370 ft | 3 kts | 59° |
| 2026-04-17 10:58 | 50.04590 | 8.57039 | 363 ft | 4 kts | 59° |
| 2026-04-17 10:58 | 50.04594 | 8.57049 | 363 ft | 1 kts | 59° |
| 2026-04-17 10:58 | 50.04599 | 8.57063 | 366 ft | 0 kts | 59° |
| 2026-04-17 10:59 | 50.04599 | 8.57062 | 366 ft | 0 kts | 59° |